createdAt,value
2022-12-19T00:02:40.361Z,102437.69
2022-12-19T00:06:44.100Z,102427.31
2022-12-19T00:10:55.655Z,102414.00
2022-12-19T00:14:57.216Z,102397.78
2022-12-19T00:19:01.442Z,102410.66
2022-12-19T00:23:03.128Z,102412.97
2022-12-19T00:27:04.569Z,102403.78
2022-12-19T00:31:06.383Z,102402.16
2022-12-19T00:35:08.166Z,102393.19
2022-12-19T00:39:11.546Z,102395.25
2022-12-19T00:43:12.968Z,102391.09
2022-12-19T00:47:14.444Z,102386.09
2022-12-19T00:51:25.269Z,102368.66
2022-12-19T00:55:26.806Z,102358.03
2022-12-19T00:59:28.378Z,102361.16
2022-12-19T01:03:29.813Z,102364.03
2022-12-19T01:07:31.328Z,102357.81
2022-12-19T01:11:51.570Z,102355.91
2022-12-19T01:15:52.957Z,102334.03
2022-12-19T01:19:54.371Z,102325.06
2022-12-19T01:23:55.855Z,102336.31
2022-12-19T01:27:57.577Z,102319.03
2022-12-19T01:31:59.089Z,102304.72
2022-12-19T01:36:07.516Z,102300.91
2022-12-19T01:40:11.581Z,102273.03
2022-12-19T01:44:13.031Z,102277.88
2022-12-19T01:48:20.537Z,102277.28
2022-12-19T01:52:23.851Z,102259.97
2022-12-19T01:56:33.000Z,102257.84
2022-12-19T02:00:34.559Z,102238.94
2022-12-19T02:04:36.750Z,102237.25
2022-12-19T02:08:39.778Z,102235.56
2022-12-19T02:12:43.287Z,102233.72
2022-12-19T02:16:59.260Z,102226.63
2022-12-19T02:21:15.441Z,102237.03
2022-12-19T02:25:58.955Z,102230.13
2022-12-19T02:30:10.411Z,102225.13
2022-12-19T02:34:51.854Z,102229.06
2022-12-19T02:39:05.204Z,102212.50
2022-12-19T02:43:12.420Z,102213.94
2022-12-19T02:47:15.118Z,102217.47
2022-12-19T02:51:16.894Z,102209.97
2022-12-19T02:55:23.758Z,102214.38
2022-12-19T02:59:57.994Z,102211.59
2022-12-19T03:04:29.613Z,102208.53
2022-12-19T03:08:39.815Z,102206.81
2022-12-19T03:12:51.373Z,102199.94
2022-12-19T03:16:53.158Z,102200.09
2022-12-19T03:21:04.204Z,102189.81
2022-12-19T03:25:06.142Z,102197.34
2022-12-19T03:29:32.350Z,102186.81
2022-12-19T03:33:35.124Z,102182.22
2022-12-19T03:37:40.538Z,102176.34
2022-12-19T03:42:03.218Z,102180.34
2022-12-19T03:46:22.223Z,102187.38
2022-12-19T03:50:27.647Z,102185.47
2022-12-19T03:54:34.867Z,102178.41
2022-12-19T03:58:40.579Z,102173.84
2022-12-19T04:02:48.265Z,102175.53
2022-12-19T04:06:50.924Z,102171.19
2022-12-19T04:10:58.545Z,102166.97
2022-12-19T04:15:00.185Z,102160.53
2022-12-19T04:19:11.973Z,102161.19
2022-12-19T04:23:25.019Z,102159.91
2022-12-19T04:27:28.237Z,102173.22
2022-12-19T04:31:30.953Z,102166.75
2022-12-19T04:35:33.779Z,102182.16
2022-12-19T04:39:35.282Z,102179.06
2022-12-19T04:43:36.801Z,102166.31
2022-12-19T04:47:38.312Z,102160.91
2022-12-19T04:51:39.805Z,102154.06
2022-12-19T04:55:41.336Z,102153.91
2022-12-19T04:59:42.787Z,102141.66
2022-12-19T05:03:44.333Z,102137.00
2022-12-19T05:07:47.022Z,102132.03
2022-12-19T05:11:48.575Z,102138.13
2022-12-19T05:15:57.910Z,102131.81
2022-12-19T05:19:59.379Z,102126.63
2022-12-19T05:24:00.890Z,102127.41
2022-12-19T05:28:02.362Z,102137.09
2022-12-19T05:32:03.824Z,102136.28
2022-12-19T05:36:06.220Z,102121.69
2022-12-19T05:40:08.344Z,102122.91
2022-12-19T05:44:10.251Z,102130.91
2022-12-19T05:48:11.725Z,102121.06
2022-12-19T05:52:13.173Z,102114.59
2022-12-19T05:56:20.429Z,102095.78
2022-12-19T06:00:22.064Z,102088.13
2022-12-19T06:04:23.519Z,102095.56
2022-12-19T06:08:24.953Z,102096.09
2022-12-19T06:12:26.632Z,102097.06
2022-12-19T06:16:28.153Z,102078.50
2022-12-19T06:20:29.627Z,102070.59
2022-12-19T06:24:31.087Z,102063.25
2022-12-19T06:28:33.562Z,102059.00
2022-12-19T06:32:38.193Z,102052.91
2022-12-19T06:36:39.923Z,102049.28
2022-12-19T06:41:03.093Z,102050.69
2022-12-19T06:45:04.830Z,102050.91
2022-12-19T06:49:06.496Z,102053.09
2022-12-19T06:53:07.933Z,102046.19
2022-12-19T06:57:09.531Z,102049.88
2022-12-19T07:01:23.747Z,102059.03
2022-12-19T07:05:26.472Z,102067.75
2022-12-19T07:09:29.433Z,102073.94
2022-12-19T07:13:30.956Z,102068.25
2022-12-19T07:17:33.430Z,102067.47
2022-12-19T07:21:35.234Z,102062.88
2022-12-19T07:25:39.011Z,102064.06
2022-12-19T07:29:40.479Z,102058.75
2022-12-19T07:33:43.056Z,102057.25
2022-12-19T07:37:44.595Z,102052.78
2022-12-19T07:41:46.244Z,102050.41
2022-12-19T07:45:54.860Z,102061.63
2022-12-19T07:49:56.449Z,102058.22
2022-12-19T07:53:57.958Z,102055.72
2022-12-19T07:57:59.762Z,102022.84
2022-12-19T08:02:01.423Z,102029.19
2022-12-19T08:06:04.983Z,102027.22
2022-12-19T08:10:06.982Z,102039.56
2022-12-19T08:14:08.467Z,102026.50
2022-12-19T08:18:09.938Z,102028.72
2022-12-19T08:22:12.046Z,102017.34
2022-12-19T08:26:16.587Z,102018.56
2022-12-19T08:30:18.834Z,102015.09
2022-12-19T08:34:20.340Z,102010.38
2022-12-19T08:38:21.939Z,102015.69
2022-12-19T08:42:23.383Z,102019.34
2022-12-19T08:46:25.146Z,102019.16
2022-12-19T08:50:26.775Z,102006.06
2022-12-19T08:54:28.294Z,101994.09
2022-12-19T08:58:30.496Z,101984.97
2022-12-19T09:02:32.226Z,101981.41
2022-12-19T09:06:34.157Z,101964.16
2022-12-19T09:10:37.555Z,101959.38
2022-12-19T09:14:39.066Z,101955.53
2022-12-19T09:18:48.093Z,101951.44
2022-12-19T09:22:50.028Z,101952.81
2022-12-19T09:26:51.544Z,101941.56
2022-12-19T09:30:58.120Z,101948.38
2022-12-19T09:34:59.627Z,101933.91
2022-12-19T09:39:01.148Z,101927.63
2022-12-19T09:43:25.374Z,101914.09
2022-12-19T09:47:30.988Z,101904.72
2022-12-19T09:51:34.453Z,101905.34
2022-12-19T09:55:40.663Z,101898.19
2022-12-19T10:00:00.097Z,101892.63
2022-12-19T10:04:20.404Z,101885.28
2022-12-19T10:08:33.485Z,101875.94
2022-12-19T10:12:57.080Z,101870.34
2022-12-19T10:17:24.455Z,101878.28
2022-12-19T10:22:16.835Z,101855.84
2022-12-19T10:26:11.095Z,101854.31
2022-12-19T10:30:18.804Z,101855.41
2022-12-19T10:34:23.021Z,101841.31
2022-12-19T10:38:34.011Z,101837.56
2022-12-19T10:42:58.472Z,101827.44
2022-12-19T10:47:04.484Z,101820.25
2022-12-19T10:51:13.508Z,101820.28
2022-12-19T10:55:38.060Z,101805.47
2022-12-19T10:59:39.555Z,101792.41
2022-12-19T11:03:49.942Z,101785.38
2022-12-19T11:08:15.623Z,101780.31
2022-12-19T11:15:45.803Z,101778.16
2022-12-19T11:23:33.136Z,101765.75
2022-12-19T11:29:31.695Z,101755.97
2022-12-19T11:30:39.549Z,101751.03
2022-12-19T11:34:37.073Z,101741.44
2022-12-19T11:38:45.379Z,101735.44
2022-12-19T11:47:43.022Z,101734.31
2022-12-19T11:52:04.544Z,101721.00
2022-12-19T11:56:16.120Z,101721.50
2022-12-19T12:00:24.423Z,101712.25
2022-12-19T12:04:38.070Z,101707.13
2022-12-19T12:11:42.603Z,101713.66
2022-12-19T12:24:40.359Z,101706.31
2022-12-19T12:31:01.843Z,101697.66
2022-12-19T12:31:40.356Z,101694.88
2022-12-19T12:32:01.911Z,101703.38
2022-12-19T12:35:30.367Z,101702.00
2022-12-19T12:42:29.550Z,101704.22
2022-12-19T12:46:52.241Z,101705.28
2022-12-19T12:50:55.520Z,101689.19
2022-12-19T12:54:58.453Z,101706.91
2022-12-19T12:59:26.993Z,101697.09
2022-12-19T13:03:29.631Z,101696.56
2022-12-19T13:07:43.097Z,101692.19
2022-12-19T13:12:16.554Z,101692.22
2022-12-19T13:16:45.784Z,101696.56
2022-12-19T13:20:48.460Z,101685.09
2022-12-19T13:24:52.912Z,101673.94
2022-12-19T13:28:54.367Z,101664.38
2022-12-19T13:32:55.761Z,101665.19
2022-12-19T13:39:49.812Z,101679.94
2022-12-19T13:42:06.532Z,101669.03
2022-12-19T13:46:26.849Z,101673.69
2022-12-19T13:50:30.977Z,101670.44
2022-12-19T13:54:46.490Z,101664.97
2022-12-19T13:59:01.326Z,101660.03
2022-12-19T14:03:03.046Z,101661.72
2022-12-19T14:07:37.476Z,101656.81
2022-12-19T14:12:25.975Z,101649.44
2022-12-19T14:16:05.514Z,101662.56
2022-12-19T14:22:06.140Z,101655.19
2022-12-19T14:27:08.264Z,101665.03
2022-12-19T14:29:56.214Z,101649.19
2022-12-19T14:34:18.496Z,101661.72
2022-12-19T14:39:19.600Z,101650.00
2022-12-19T14:43:59.737Z,101659.03
2022-12-19T14:52:34.788Z,101657.94
2022-12-19T14:54:49.390Z,101653.84
2022-12-19T14:57:02.396Z,101654.41
2022-12-19T15:01:22.995Z,101638.81
2022-12-19T15:05:25.698Z,101638.81
2022-12-19T15:11:07.602Z,101633.63
2022-12-19T15:14:58.582Z,101639.06
2022-12-19T15:18:37.155Z,101632.81
2022-12-19T15:22:38.643Z,101624.34
2022-12-19T15:26:47.838Z,101627.88
2022-12-19T15:30:58.149Z,101633.34
2022-12-19T15:34:59.605Z,101642.59
2022-12-19T15:39:01.131Z,101638.50
2022-12-19T15:43:04.480Z,101631.66
2022-12-19T15:47:14.210Z,101627.56
2022-12-19T15:51:18.981Z,101622.38
2022-12-19T15:55:24.048Z,101631.09
2022-12-19T15:59:38.054Z,101613.59
2022-12-19T16:03:40.210Z,101609.50
2022-12-19T16:07:42.219Z,101608.09
2022-12-19T16:11:44.450Z,101606.44
2022-12-19T16:15:46.828Z,101612.16
2022-12-19T16:19:48.792Z,101604.50
2022-12-19T16:23:50.769Z,101605.56
2022-12-19T16:27:56.949Z,101607.72
2022-12-19T16:32:00.538Z,101602.19
2022-12-19T16:36:05.167Z,101613.13
2022-12-19T16:40:20.222Z,101596.09
2022-12-19T16:44:23.646Z,101591.88
2022-12-19T16:48:27.418Z,101586.53
2022-12-19T16:52:28.869Z,101587.72
2022-12-19T16:56:34.280Z,101587.03
2022-12-19T17:00:37.756Z,101587.19
2022-12-19T17:04:42.697Z,101590.72
2022-12-19T17:08:44.898Z,101586.84
2022-12-19T17:12:46.971Z,101581.31
2022-12-19T17:16:48.981Z,101572.88
2022-12-19T17:20:50.620Z,101574.41
2022-12-19T17:24:52.104Z,101580.63
2022-12-19T17:28:53.693Z,101572.47
2022-12-19T17:32:55.941Z,101571.34
2022-12-19T17:37:03.563Z,101583.88
2022-12-19T17:41:05.185Z,101576.97
2022-12-19T17:45:07.073Z,101572.88
2022-12-19T17:49:23.741Z,101560.19
2022-12-19T17:53:25.973Z,101566.00
2022-12-19T17:57:27.496Z,101565.09
2022-12-19T18:01:29.630Z,101570.75
2022-12-19T18:05:36.024Z,101571.84
2022-12-19T18:09:37.647Z,101574.06
2022-12-19T18:13:39.125Z,101588.50
2022-12-19T18:17:41.316Z,101578.66
2022-12-19T18:21:42.849Z,101577.00
2022-12-19T18:25:45.466Z,101579.47
2022-12-19T18:29:46.948Z,101569.56
2022-12-19T18:33:49.172Z,101558.38
2022-12-19T18:37:52.041Z,101565.69
2022-12-19T18:41:54.190Z,101567.22
2022-12-19T18:45:55.788Z,101565.63
2022-12-19T18:49:57.417Z,101567.94
2022-12-19T18:53:58.885Z,101560.59
2022-12-19T18:58:00.356Z,101565.25
2022-12-19T19:02:02.148Z,101558.06
2022-12-19T19:06:06.367Z,101553.09
2022-12-19T19:10:27.991Z,101542.13
2022-12-19T19:14:29.653Z,101532.69
2022-12-19T19:18:40.119Z,101535.66
2022-12-19T19:22:41.716Z,101531.59
2022-12-19T19:26:43.274Z,101521.16
2022-12-19T19:30:45.222Z,101513.56
2022-12-19T19:34:46.981Z,101505.88
2022-12-19T19:38:53.008Z,101514.63
2022-12-19T19:42:54.516Z,101512.91
2022-12-19T19:46:56.404Z,101518.44
2022-12-19T19:50:58.968Z,101522.47
2022-12-19T19:55:00.587Z,101518.53
2022-12-19T19:59:02.087Z,101519.50
2022-12-19T20:03:08.532Z,101521.81
2022-12-19T20:07:11.281Z,101519.59
2022-12-19T20:11:13.628Z,101512.84
2022-12-19T20:15:15.099Z,101504.25
2022-12-19T20:19:16.648Z,101503.66
2022-12-19T20:23:18.107Z,101499.56
2022-12-19T20:27:19.545Z,101498.81
2022-12-19T20:31:24.032Z,101494.72
2022-12-19T20:35:25.575Z,101483.16
2022-12-19T20:39:27.104Z,101482.50
2022-12-19T20:43:28.808Z,101488.72
2022-12-19T20:47:30.423Z,101485.28
2022-12-19T20:51:32.037Z,101483.66
2022-12-19T20:55:33.554Z,101482.78
2022-12-19T20:59:35.079Z,101480.09
2022-12-19T21:03:37.939Z,101472.16
2022-12-19T21:07:39.586Z,101486.56
2022-12-19T21:11:41.060Z,101477.19
2022-12-19T21:15:42.752Z,101482.75
2022-12-19T21:19:44.559Z,101474.06
2022-12-19T21:23:46.394Z,101485.81
2022-12-19T21:27:47.873Z,101482.31
2022-12-19T21:31:50.571Z,101482.66
2022-12-19T21:35:52.275Z,101485.25
2022-12-19T21:39:53.691Z,101486.69
2022-12-19T21:43:56.352Z,101472.16
2022-12-19T21:47:57.818Z,101469.94
2022-12-19T21:51:59.304Z,101476.97
2022-12-19T21:56:06.896Z,101491.19
2022-12-19T22:00:10.668Z,101481.22
2022-12-19T22:04:20.288Z,101485.13
2022-12-19T22:08:21.801Z,101476.03
2022-12-19T22:12:23.399Z,101470.28
2022-12-19T22:16:30.886Z,101467.84
2022-12-19T22:20:32.504Z,101476.66
2022-12-19T22:24:34.033Z,101474.38
2022-12-19T22:28:39.289Z,101474.31
2022-12-19T22:32:40.714Z,101467.63
2022-12-19T22:36:43.395Z,101469.97
2022-12-19T22:40:44.870Z,101487.44
2022-12-19T22:44:46.329Z,101461.22
2022-12-19T22:48:49.502Z,101445.56
2022-12-19T22:52:50.994Z,101446.34
2022-12-19T22:56:52.609Z,101448.56
2022-12-19T23:00:54.102Z,101432.56
2022-12-19T23:04:55.672Z,101427.94
2022-12-19T23:08:57.767Z,101450.00
2022-12-19T23:12:59.258Z,101437.06
2022-12-19T23:17:00.828Z,101437.94
2022-12-19T23:21:18.431Z,101442.31
2022-12-19T23:25:19.897Z,101446.16
2022-12-19T23:29:21.365Z,101424.84
2022-12-19T23:33:23.118Z,101428.47
2022-12-19T23:37:24.579Z,101428.56
2022-12-19T23:41:26.062Z,101410.78
2022-12-19T23:45:27.644Z,101424.09
2022-12-19T23:49:29.201Z,101423.53
2022-12-19T23:53:31.358Z,101427.59
2022-12-19T23:57:32.878Z,101411.69
